createdAt,value
2023-04-16T00:01:21.961Z,4.15
2023-04-16T00:03:48.762Z,7.10
2023-04-16T00:06:15.434Z,6.77
2023-04-16T00:08:43.486Z,5.10
2023-04-16T00:11:09.931Z,6.40
2023-04-16T00:13:37.130Z,4.32
2023-04-16T00:16:03.585Z,4.40
2023-04-16T00:18:30.201Z,3.57
2023-04-16T00:20:56.666Z,4.18
2023-04-16T00:23:25.267Z,5.55
2023-04-16T00:25:52.143Z,4.45
2023-04-16T00:28:18.570Z,9.75
2023-04-16T00:30:45.143Z,7.33
2023-04-16T00:33:11.567Z,5.68
2023-04-16T00:35:37.971Z,4.07
2023-04-16T00:38:04.448Z,5.00
2023-04-16T00:40:30.854Z,10.88
2023-04-16T00:42:57.256Z,3.77
2023-04-16T00:45:23.783Z,4.85
2023-04-16T00:47:50.396Z,4.18
2023-04-16T00:50:19.006Z,6.32
2023-04-16T00:52:47.591Z,8.07
2023-04-16T00:55:15.486Z,8.70
2023-04-16T00:57:41.947Z,6.32
2023-04-16T01:00:09.875Z,5.38
2023-04-16T01:02:36.812Z,8.25
2023-04-16T01:05:04.529Z,7.32
2023-04-16T01:07:31.489Z,9.10
2023-04-16T01:09:57.900Z,7.00
2023-04-16T01:12:24.368Z,9.77
2023-04-16T01:14:50.906Z,5.82
2023-04-16T01:17:17.390Z,5.63
2023-04-16T01:19:43.778Z,7.03
2023-04-16T01:22:10.203Z,8.38
2023-04-16T01:24:36.685Z,10.10
2023-04-16T01:27:03.131Z,5.30
2023-04-16T01:29:29.635Z,6.03
2023-04-16T01:31:56.171Z,6.30
2023-04-16T01:34:23.049Z,6.18
2023-04-16T01:36:49.490Z,6.97
2023-04-16T01:39:16.408Z,7.40
2023-04-16T01:41:43.641Z,9.77
2023-04-16T01:44:10.273Z,8.33
2023-04-16T01:46:37.766Z,12.98
2023-04-16T01:49:05.198Z,12.13
2023-04-16T01:51:32.220Z,10.82
2023-04-16T01:53:58.873Z,7.20
2023-04-16T01:56:25.795Z,7.50
2023-04-16T01:58:53.108Z,11.88
2023-04-16T02:01:19.951Z,15.65
2023-04-16T02:03:47.407Z,11.07
2023-04-16T02:06:14.677Z,8.82
2023-04-16T02:08:41.580Z,12.80
2023-04-16T02:11:08.193Z,14.18
2023-04-16T02:13:34.723Z,12.80
2023-04-16T02:16:01.276Z,8.75
2023-04-16T02:18:27.905Z,11.35
2023-04-16T02:20:54.324Z,12.63
2023-04-16T02:23:20.731Z,10.35
2023-04-16T02:25:47.888Z,13.50
2023-04-16T02:28:17.240Z,13.45
2023-04-16T02:30:44.023Z,8.18
2023-04-16T02:33:12.007Z,10.60
2023-04-16T02:35:40.060Z,12.30
2023-04-16T02:38:07.702Z,12.73
2023-04-16T02:40:34.198Z,17.50
2023-04-16T02:43:00.802Z,15.98
2023-04-16T02:45:27.887Z,10.43
2023-04-16T02:47:54.355Z,10.60
2023-04-16T02:50:21.013Z,13.25
2023-04-16T02:52:47.720Z,16.65
2023-04-16T02:55:14.110Z,12.63
2023-04-16T02:57:42.380Z,14.57
2023-04-16T03:00:09.548Z,13.65
2023-04-16T03:02:36.090Z,13.07
2023-04-16T03:05:03.328Z,11.80
2023-04-16T03:07:29.713Z,12.25
2023-04-16T03:09:56.263Z,16.03
2023-04-16T03:12:22.735Z,14.93
2023-04-16T03:14:51.731Z,12.95
2023-04-16T03:17:18.249Z,13.80
2023-04-16T03:19:44.680Z,16.63
2023-04-16T03:22:11.046Z,9.57
2023-04-16T03:24:38.211Z,12.18
2023-04-16T03:27:04.578Z,16.98
2023-04-16T03:29:30.950Z,14.60
2023-04-16T03:31:57.639Z,11.93
2023-04-16T03:34:24.071Z,15.93
2023-04-16T03:36:50.549Z,8.88
2023-04-16T03:39:17.050Z,18.67
2023-04-16T03:41:43.440Z,12.73
2023-04-16T03:44:09.871Z,14.05
2023-04-16T03:46:36.476Z,15.37
2023-04-16T03:49:02.986Z,12.95
2023-04-16T03:51:29.336Z,12.60
2023-04-16T03:53:56.057Z,14.30
2023-04-16T03:56:22.599Z,12.57
2023-04-16T03:58:49.019Z,10.80
2023-04-16T04:01:15.414Z,18.38
2023-04-16T04:03:41.974Z,17.35
2023-04-16T04:06:09.479Z,11.70
2023-04-16T04:08:36.019Z,13.77
2023-04-16T04:11:02.429Z,10.67
2023-04-16T04:13:28.821Z,18.42
2023-04-16T04:15:55.363Z,15.63
2023-04-16T04:18:21.839Z,16.40
2023-04-16T04:20:48.269Z,16.55
2023-04-16T04:23:14.608Z,18.60
2023-04-16T04:25:41.025Z,13.45
2023-04-16T04:28:07.442Z,13.88
2023-04-16T04:30:35.723Z,13.55
2023-04-16T04:33:02.285Z,17.33
2023-04-16T04:35:28.726Z,16.47
2023-04-16T04:37:55.129Z,15.38
2023-04-16T04:40:21.602Z,14.77
2023-04-16T04:42:48.083Z,13.85
2023-04-16T04:45:14.549Z,11.93
2023-04-16T04:47:41.070Z,12.37
2023-04-16T04:50:07.935Z,13.15
2023-04-16T04:52:34.322Z,18.73
2023-04-16T04:55:00.729Z,21.90
2023-04-16T04:57:27.091Z,21.80
2023-04-16T04:59:53.513Z,14.43
2023-04-16T05:02:19.929Z,16.20
2023-04-16T05:04:46.587Z,15.80
2023-04-16T05:07:13.035Z,17.35
2023-04-16T05:09:39.384Z,16.58
2023-04-16T05:12:05.892Z,13.30
2023-04-16T05:14:32.281Z,18.65
2023-04-16T05:16:58.802Z,13.88
2023-04-16T05:19:25.363Z,14.80
2023-04-16T05:21:51.848Z,16.70
2023-04-16T05:24:18.344Z,12.70
2023-04-16T05:26:44.730Z,14.07
2023-04-16T05:29:11.436Z,16.25
2023-04-16T05:31:38.366Z,13.43
2023-04-16T05:34:04.827Z,12.25
2023-04-16T05:36:31.230Z,14.33
2023-04-16T05:38:57.624Z,12.48
2023-04-16T05:41:24.143Z,15.10
2023-04-16T05:43:50.645Z,15.82
2023-04-16T05:46:17.098Z,13.02
2023-04-16T05:48:43.494Z,11.17
2023-04-16T05:51:09.855Z,13.23
2023-04-16T05:53:36.217Z,15.55
2023-04-16T05:56:02.542Z,16.95
2023-04-16T05:58:29.037Z,15.68
2023-04-16T06:00:55.463Z,19.87
2023-04-16T06:03:21.936Z,12.85
2023-04-16T06:05:48.777Z,19.35
2023-04-16T06:08:15.444Z,19.45
2023-04-16T06:10:41.925Z,13.73
2023-04-16T06:13:08.307Z,15.97
2023-04-16T06:15:34.721Z,16.38
2023-04-16T06:18:01.212Z,15.80
2023-04-16T06:20:27.843Z,18.85
2023-04-16T06:22:55.464Z,10.77
2023-04-16T06:25:21.925Z,17.43
2023-04-16T06:27:48.490Z,17.88
2023-04-16T06:30:15.793Z,13.02
2023-04-16T06:32:43.207Z,12.90
2023-04-16T06:35:09.920Z,16.98
2023-04-16T06:37:36.269Z,16.30
2023-04-16T06:40:02.825Z,22.38
2023-04-16T06:42:29.422Z,18.40
2023-04-16T06:44:55.823Z,21.65
2023-04-16T06:47:22.506Z,18.05
2023-04-16T06:49:48.890Z,17.33
2023-04-16T06:52:15.572Z,14.45
2023-04-16T06:54:41.992Z,17.70
2023-04-16T06:57:08.449Z,15.73
2023-04-16T06:59:34.832Z,13.10
2023-04-16T07:02:01.499Z,15.67
2023-04-16T07:04:28.072Z,20.02
2023-04-16T07:06:54.571Z,15.75
2023-04-16T07:09:20.937Z,19.65
2023-04-16T07:11:47.691Z,17.15
2023-04-16T07:14:14.083Z,15.83
2023-04-16T07:16:40.780Z,17.30
2023-04-16T07:19:07.369Z,15.98
2023-04-16T07:21:34.075Z,21.30
2023-04-16T07:24:00.888Z,19.80
2023-04-16T07:26:27.274Z,18.73
2023-04-16T07:28:53.660Z,17.52
2023-04-16T07:31:20.254Z,19.48
2023-04-16T07:33:46.845Z,20.63
2023-04-16T07:36:13.865Z,20.83
2023-04-16T07:38:40.261Z,17.70
2023-04-16T07:41:06.680Z,16.45
2023-04-16T07:43:33.075Z,16.05
2023-04-16T07:45:59.513Z,13.88
2023-04-16T07:48:26.028Z,15.20
2023-04-16T07:50:52.530Z,14.77
2023-04-16T07:53:18.982Z,16.15
2023-04-16T07:55:45.585Z,15.27
2023-04-16T07:58:12.002Z,13.52
2023-04-16T08:00:39.688Z,10.55
2023-04-16T08:03:06.284Z,13.40
2023-04-16T08:05:32.880Z,12.80
2023-04-16T08:07:59.288Z,14.65
2023-04-16T08:10:25.997Z,10.52
2023-04-16T08:12:52.410Z,11.00
2023-04-16T08:15:19.070Z,11.27
2023-04-16T08:17:45.844Z,9.57
2023-04-16T08:20:15.772Z,11.40
2023-04-16T08:22:45.555Z,14.27
2023-04-16T08:25:12.038Z,11.90
2023-04-16T08:27:38.409Z,10.13
2023-04-16T08:30:05.429Z,9.50
2023-04-16T08:32:31.960Z,10.38
2023-04-16T08:34:58.620Z,8.68
2023-04-16T08:37:25.884Z,9.95
2023-04-16T08:39:52.299Z,10.23
2023-04-16T08:42:29.184Z,6.85
2023-04-16T08:45:21.059Z,7.45
2023-04-16T08:47:50.759Z,6.63
2023-04-16T08:50:22.531Z,6.10
2023-04-16T08:53:01.844Z,6.00
2023-04-16T08:55:37.472Z,10.77
2023-04-16T08:58:13.215Z,6.40
2023-04-16T09:00:41.087Z,6.50
2023-04-16T09:03:08.838Z,7.35
2023-04-16T09:05:36.038Z,6.20
2023-04-16T09:08:02.511Z,4.47
2023-04-16T09:10:28.994Z,6.75
2023-04-16T09:12:56.969Z,6.28
2023-04-16T09:15:25.689Z,5.65
2023-04-16T09:17:53.065Z,5.23
2023-04-16T09:20:20.054Z,5.97
2023-04-16T09:22:46.727Z,5.45
2023-04-16T09:25:13.347Z,4.93
2023-04-16T09:27:39.772Z,8.63
2023-04-16T09:30:22.749Z,5.40
2023-04-16T09:32:50.241Z,6.43
2023-04-16T09:35:21.463Z,7.35
2023-04-16T09:37:58.145Z,7.78
2023-04-16T09:40:27.147Z,5.72
2023-04-16T09:42:57.748Z,6.90
2023-04-16T09:45:24.422Z,5.68
2023-04-16T09:47:51.020Z,7.85
2023-04-16T09:50:19.629Z,8.98
2023-04-16T09:52:50.940Z,6.05
2023-04-16T09:55:23.115Z,6.10
2023-04-16T09:57:49.570Z,6.90
2023-04-16T10:00:19.342Z,7.90
2023-04-16T10:02:46.244Z,7.93
2023-04-16T10:05:16.891Z,9.52
2023-04-16T10:07:43.309Z,7.63
2023-04-16T10:10:10.225Z,7.35
2023-04-16T10:12:36.663Z,6.80
2023-04-16T10:15:03.407Z,9.52
2023-04-16T10:17:31.177Z,8.32
2023-04-16T10:19:58.314Z,8.67
2023-04-16T10:22:26.257Z,9.00
2023-04-16T10:24:53.388Z,9.63
2023-04-16T10:27:20.514Z,13.10
2023-04-16T10:29:47.553Z,10.85
2023-04-16T10:32:14.300Z,12.63
2023-04-16T10:34:41.025Z,12.57
2023-04-16T10:37:07.410Z,13.07
2023-04-16T10:39:37.568Z,10.23
2023-04-16T10:42:12.016Z,15.05
2023-04-16T10:44:42.524Z,10.10
2023-04-16T10:47:12.845Z,13.73
2023-04-16T10:49:39.797Z,12.05
2023-04-16T10:52:16.928Z,13.55
2023-04-16T10:54:43.459Z,13.00
2023-04-16T10:57:16.169Z,13.83
2023-04-16T10:59:44.029Z,13.73
2023-04-16T11:02:16.022Z,13.50
2023-04-16T11:04:47.600Z,11.07
2023-04-16T11:07:31.268Z,18.95
2023-04-16T11:10:05.155Z,9.33
2023-04-16T11:12:34.278Z,9.80
2023-04-16T11:15:06.369Z,10.52
2023-04-16T11:17:37.356Z,14.90
2023-04-16T11:20:19.604Z,14.00
2023-04-16T11:22:47.566Z,12.60
2023-04-16T11:25:19.725Z,8.15
2023-04-16T11:27:46.457Z,12.40
2023-04-16T11:30:13.600Z,7.95
2023-04-16T11:32:40.672Z,11.45
2023-04-16T11:35:18.532Z,12.03
2023-04-16T11:37:48.598Z,11.35
2023-04-16T11:40:15.431Z,11.88
2023-04-16T11:42:42.787Z,9.38
2023-04-16T11:45:11.270Z,11.35
2023-04-16T11:47:46.054Z,9.33
2023-04-16T11:50:24.942Z,11.13
2023-04-16T11:52:52.974Z,11.05
2023-04-16T11:55:19.925Z,10.38
2023-04-16T11:57:46.800Z,15.45
2023-04-16T12:00:14.229Z,12.90
2023-04-16T12:02:49.871Z,12.00
2023-04-16T12:05:34.769Z,14.52
2023-04-16T12:08:04.011Z,11.10
2023-04-16T12:10:32.260Z,14.45
2023-04-16T12:13:15.626Z,12.97
2023-04-16T12:15:53.723Z,13.73
2023-04-16T12:18:26.161Z,12.00
2023-04-16T12:20:52.936Z,13.07
2023-04-16T12:23:30.750Z,11.95
2023-04-16T12:26:02.353Z,9.90
2023-04-16T12:28:34.292Z,10.35
2023-04-16T12:31:02.381Z,8.88
2023-04-16T12:33:29.320Z,11.13
2023-04-16T12:35:55.938Z,11.60
2023-04-16T12:38:24.470Z,8.90
2023-04-16T12:40:51.438Z,9.93
2023-04-16T12:43:18.262Z,10.13
2023-04-16T12:45:44.811Z,12.68
2023-04-16T12:48:11.501Z,13.48
2023-04-16T12:50:39.603Z,12.53
2023-04-16T12:53:06.211Z,11.20
2023-04-16T12:55:32.703Z,9.32
2023-04-16T12:57:59.154Z,12.48
2023-04-16T13:00:25.809Z,9.15
2023-04-16T13:02:52.328Z,12.47
2023-04-16T13:05:19.325Z,10.48
2023-04-16T13:07:46.514Z,14.40
2023-04-16T13:10:13.630Z,11.05
2023-04-16T13:12:40.256Z,14.00
2023-04-16T13:15:07.218Z,14.93
2023-04-16T13:17:33.649Z,14.43
2023-04-16T13:20:00.190Z,14.55
2023-04-16T13:22:26.695Z,20.58
2023-04-16T13:24:53.205Z,20.48
2023-04-16T13:27:20.213Z,17.50
2023-04-16T13:29:47.478Z,17.90
2023-04-16T13:32:14.687Z,17.65
2023-04-16T13:34:41.082Z,14.57
2023-04-16T13:37:07.503Z,19.20
2023-04-16T13:39:33.988Z,22.70
2023-04-16T13:42:00.615Z,18.83
2023-04-16T13:44:27.024Z,19.50
2023-04-16T13:46:53.578Z,13.45
2023-04-16T13:49:20.573Z,14.63
2023-04-16T13:51:47.066Z,13.57
2023-04-16T13:54:13.483Z,16.83
2023-04-16T13:56:40.019Z,14.68
2023-04-16T13:59:06.489Z,15.75
2023-04-16T14:01:33.042Z,15.77
2023-04-16T14:04:06.047Z,12.20
2023-04-16T14:06:33.784Z,15.20
2023-04-16T14:09:00.406Z,11.73
2023-04-16T14:11:26.848Z,11.38
2023-04-16T14:13:53.414Z,12.63
2023-04-16T14:16:19.961Z,14.00
2023-04-16T14:18:47.332Z,13.02
2023-04-16T14:21:13.729Z,12.73
2023-04-16T14:23:40.324Z,11.13
2023-04-16T14:26:06.790Z,12.30
2023-04-16T14:28:33.287Z,12.00
2023-04-16T14:30:59.676Z,12.27
2023-04-16T14:33:26.092Z,16.90
2023-04-16T14:35:52.566Z,10.52
2023-04-16T14:38:18.965Z,15.13
2023-04-16T14:40:45.489Z,11.03
2023-04-16T14:43:11.909Z,12.32
2023-04-16T14:45:38.887Z,14.07
2023-04-16T14:48:06.268Z,10.70
2023-04-16T14:50:37.810Z,9.93
2023-04-16T14:53:05.123Z,12.10
2023-04-16T14:55:32.055Z,13.30
2023-04-16T14:57:59.608Z,17.30
2023-04-16T15:00:26.346Z,16.13
2023-04-16T15:02:53.984Z,11.95
2023-04-16T15:05:20.561Z,11.60
2023-04-16T15:07:47.512Z,12.23
2023-04-16T15:10:14.022Z,11.68
2023-04-16T15:12:40.765Z,10.02
2023-04-16T15:15:08.092Z,14.30
2023-04-16T15:17:34.682Z,12.13
2023-04-16T15:20:01.575Z,12.52
2023-04-16T15:22:28.187Z,11.95
2023-04-16T15:24:54.568Z,11.95
2023-04-16T15:27:21.081Z,9.15
2023-04-16T15:29:49.300Z,10.03
2023-04-16T15:32:15.818Z,11.30
2023-04-16T15:34:42.273Z,10.90
2023-04-16T15:37:09.699Z,11.95
2023-04-16T15:39:36.060Z,10.13
2023-04-16T15:42:07.283Z,11.60
2023-04-16T15:44:34.579Z,11.23
2023-04-16T15:47:01.130Z,13.55
2023-04-16T15:49:27.608Z,15.05
2023-04-16T15:51:54.043Z,12.57
2023-04-16T15:54:20.436Z,14.53
2023-04-16T15:56:47.544Z,14.02
2023-04-16T15:59:13.971Z,13.50
2023-04-16T16:01:40.853Z,15.25
2023-04-16T16:04:08.092Z,13.55
2023-04-16T16:06:34.985Z,10.90
2023-04-16T16:09:01.814Z,15.20
2023-04-16T16:11:28.412Z,10.95
2023-04-16T16:13:55.026Z,12.55
2023-04-16T16:16:21.883Z,15.90
2023-04-16T16:18:48.745Z,14.67
2023-04-16T16:21:15.144Z,17.65
2023-04-16T16:23:41.912Z,13.68
2023-04-16T16:26:09.259Z,16.77
2023-04-16T16:28:38.322Z,20.75
2023-04-16T16:31:05.863Z,12.60
2023-04-16T16:33:32.520Z,20.65
2023-04-16T16:35:58.941Z,12.75
2023-04-16T16:38:25.735Z,13.65
2023-04-16T16:40:52.114Z,18.10
2023-04-16T16:43:18.588Z,17.07
2023-04-16T16:45:45.160Z,14.95
2023-04-16T16:48:11.584Z,15.23
2023-04-16T16:50:38.007Z,14.30
2023-04-16T16:53:04.532Z,15.75
2023-04-16T16:55:31.051Z,18.33
2023-04-16T16:57:57.475Z,17.75
2023-04-16T17:00:23.948Z,15.15
2023-04-16T17:02:52.047Z,14.32
2023-04-16T17:05:18.995Z,16.00
2023-04-16T17:07:45.918Z,19.73
2023-04-16T17:10:15.786Z,17.02
2023-04-16T17:12:42.194Z,15.45
2023-04-16T17:15:09.171Z,17.42
2023-04-16T17:17:35.827Z,16.45
2023-04-16T17:20:08.070Z,18.33
2023-04-16T17:22:34.455Z,17.42
2023-04-16T17:25:00.855Z,15.40
2023-04-16T17:27:29.287Z,15.15
2023-04-16T17:30:00.109Z,18.58
2023-04-16T17:32:27.060Z,17.37
2023-04-16T17:34:56.482Z,14.40
2023-04-16T17:37:23.654Z,13.57
2023-04-16T17:39:50.494Z,19.42
2023-04-16T17:42:17.418Z,16.25
2023-04-16T17:44:43.830Z,14.97
2023-04-16T17:47:10.740Z,15.35
2023-04-16T17:49:37.150Z,10.93
2023-04-16T17:52:03.695Z,18.92
2023-04-16T17:54:30.497Z,17.45
2023-04-16T17:56:57.625Z,14.83
2023-04-16T17:59:24.064Z,16.42
2023-04-16T18:01:50.555Z,16.33
2023-04-16T18:04:17.561Z,16.55
2023-04-16T18:06:44.452Z,15.07
2023-04-16T18:09:11.997Z,16.57
2023-04-16T18:11:38.362Z,17.90
2023-04-16T18:14:04.893Z,14.35
2023-04-16T18:16:31.289Z,16.63
2023-04-16T18:18:57.677Z,15.65
2023-04-16T18:21:24.216Z,13.53
2023-04-16T18:23:50.616Z,20.00
2023-04-16T18:26:20.512Z,19.60
2023-04-16T18:28:48.734Z,19.02
2023-04-16T18:31:15.300Z,18.95
2023-04-16T18:33:55.725Z,18.67
2023-04-16T18:36:23.932Z,17.40
2023-04-16T18:39:01.091Z,22.38
2023-04-16T18:41:28.715Z,20.35
2023-04-16T18:43:55.342Z,22.70
2023-04-16T18:46:21.842Z,18.43
2023-04-16T18:48:48.242Z,21.17
2023-04-16T18:51:16.072Z,23.73
2023-04-16T18:53:44.371Z,22.85
2023-04-16T18:56:11.548Z,19.60
2023-04-16T18:58:38.056Z,21.33
2023-04-16T19:01:07.778Z,19.05
2023-04-16T19:03:34.428Z,20.23
2023-04-16T19:06:01.046Z,21.67
2023-04-16T19:08:27.493Z,23.02
2023-04-16T19:10:54.017Z,20.40
2023-04-16T19:13:20.580Z,22.13
2023-04-16T19:15:47.466Z,22.10
2023-04-16T19:18:13.932Z,22.48
2023-04-16T19:20:40.449Z,18.05
2023-04-16T19:23:08.876Z,19.23
2023-04-16T19:25:36.469Z,21.83
2023-04-16T19:28:03.782Z,17.17
2023-04-16T19:30:30.987Z,18.40
2023-04-16T19:32:57.587Z,22.50
2023-04-16T19:35:24.149Z,21.20
2023-04-16T19:37:50.846Z,21.35
2023-04-16T19:40:17.275Z,19.95
2023-04-16T19:42:45.351Z,22.60
2023-04-16T19:45:11.949Z,17.55
2023-04-16T19:47:38.511Z,20.67
2023-04-16T19:50:05.472Z,21.15
2023-04-16T19:52:37.195Z,23.75
2023-04-16T19:55:03.712Z,25.27
2023-04-16T19:57:30.090Z,23.27
2023-04-16T19:59:57.014Z,27.00
2023-04-16T20:02:23.779Z,20.77
2023-04-16T20:04:50.743Z,23.13
2023-04-16T20:07:17.461Z,16.05
2023-04-16T20:09:43.865Z,24.02
2023-04-16T20:12:10.753Z,24.20
2023-04-16T20:14:37.110Z,22.70
2023-04-16T20:17:03.603Z,21.05
2023-04-16T20:19:33.691Z,25.45
2023-04-16T20:22:00.053Z,22.35
2023-04-16T20:24:26.453Z,23.27
2023-04-16T20:26:52.792Z,22.52
2023-04-16T20:29:19.135Z,23.45
2023-04-16T20:31:46.481Z,23.60
2023-04-16T20:34:12.866Z,25.27
2023-04-16T20:36:39.245Z,25.07
2023-04-16T20:39:07.190Z,22.13
2023-04-16T20:41:34.054Z,28.02
2023-04-16T20:44:05.245Z,22.95
2023-04-16T20:46:33.975Z,22.35
2023-04-16T20:49:01.185Z,23.53
2023-04-16T20:51:27.634Z,27.50
2023-04-16T20:53:54.101Z,20.38
2023-04-16T20:56:20.560Z,24.27
2023-04-16T20:58:46.991Z,26.23
2023-04-16T21:01:13.517Z,27.87
2023-04-16T21:03:40.780Z,27.88
2023-04-16T21:06:07.366Z,27.52
2023-04-16T21:08:33.945Z,32.85
2023-04-16T21:11:00.548Z,25.65
2023-04-16T21:13:26.892Z,24.77
2023-04-16T21:15:53.306Z,25.60
2023-04-16T21:18:19.754Z,28.42
2023-04-16T21:20:46.580Z,25.00
2023-04-16T21:23:13.014Z,26.10
2023-04-16T21:25:39.478Z,29.47
2023-04-16T21:28:06.364Z,25.63
2023-04-16T21:30:32.765Z,24.17
2023-04-16T21:32:59.138Z,22.30
2023-04-16T21:35:25.650Z,22.00
2023-04-16T21:37:52.169Z,23.73
2023-04-16T21:40:18.598Z,24.83
2023-04-16T21:42:45.059Z,20.25
2023-04-16T21:45:11.792Z,24.23
2023-04-16T21:47:38.408Z,23.40
2023-04-16T21:50:05.650Z,23.33
2023-04-16T21:52:32.922Z,20.92
2023-04-16T21:55:02.517Z,28.63
2023-04-16T21:57:28.930Z,23.58
2023-04-16T21:59:55.300Z,24.58
2023-04-16T22:02:21.834Z,18.87
2023-04-16T22:04:48.660Z,21.17
2023-04-16T22:07:16.641Z,22.08
2023-04-16T22:09:43.125Z,26.70
2023-04-16T22:12:12.826Z,23.10
2023-04-16T22:14:43.920Z,29.47
2023-04-16T22:17:17.092Z,28.83
2023-04-16T22:19:44.512Z,23.17
2023-04-16T22:22:10.930Z,25.92
2023-04-16T22:24:37.339Z,30.42
2023-04-16T22:27:03.920Z,25.77
2023-04-16T22:29:30.303Z,22.98
2023-04-16T22:31:56.858Z,28.63
2023-04-16T22:34:23.594Z,28.63
2023-04-16T22:36:50.048Z,27.98
2023-04-16T22:39:16.379Z,28.73
2023-04-16T22:41:42.757Z,26.25
2023-04-16T22:44:09.855Z,27.13
2023-04-16T22:46:36.447Z,27.55
2023-04-16T22:49:02.944Z,28.48
2023-04-16T22:51:30.551Z,28.90
2023-04-16T22:53:56.983Z,29.25
2023-04-16T22:56:28.572Z,28.05
2023-04-16T22:58:55.047Z,32.10
2023-04-16T23:01:21.592Z,27.80
2023-04-16T23:03:48.190Z,28.77
2023-04-16T23:06:14.838Z,28.63
2023-04-16T23:08:41.309Z,28.77
2023-04-16T23:11:07.728Z,31.63
2023-04-16T23:13:34.081Z,28.98
2023-04-16T23:16:00.539Z,30.67
2023-04-16T23:18:27.053Z,29.40
2023-04-16T23:20:53.829Z,27.10
2023-04-16T23:23:20.331Z,28.13
2023-04-16T23:25:46.864Z,30.20
2023-04-16T23:28:13.322Z,28.77
2023-04-16T23:30:39.700Z,31.73
2023-04-16T23:33:06.686Z,29.65
2023-04-16T23:35:33.241Z,36.25
2023-04-16T23:37:59.603Z,29.88
2023-04-16T23:40:26.144Z,31.90
2023-04-16T23:42:52.535Z,32.50
2023-04-16T23:45:19.002Z,35.03
2023-04-16T23:47:45.795Z,33.15
2023-04-16T23:50:12.340Z,31.83
2023-04-16T23:52:38.866Z,32.53
2023-04-16T23:55:05.703Z,27.27
2023-04-16T23:57:32.119Z,29.13
2023-04-16T23:59:58.489Z,33.13
